Roseau, Dominica

1:53 AM AST on July 05, 2015 (GMT -0400)
J73WA Weather Station | | Change Station
CLOSE
Current Station
Personal Weather Station
Location: Portsmouth, Dominica
Elevation: 20 ft
Nearby Weather Stations

Elev 20 ft 15.58 °N, 61.46 °W | Updated 11 seconds ago

Mostly Cloudy
Mostly Cloudy
80.4 °F
Feels Like 87 °F
N
13.3
Wind Variable Wind from NE
Gusts 21.9 mph

Today
High -- | Low -- °F
--% Chance of Precip.
Yesterday
High -- | Low -- °F
Precip. -- in
5:39 AM 6:40 PM
Waning Gibbous, 87% visible
Pressure 29.98 in
Visibility 6.2 miles
Clouds Mostly Cloudy 2600 ft
Mostly Cloudy 3400 ft
Mostly Cloudy 4100 ft
Heat Index 87 °F
Dew Point 77 °F
Humidity 89%
Rainfall 0.00 in
Snow Depth Not available.
UV 0 out of 12
Pollen Not available.
Air Quality Not available.
Flu Activity Not available.
METAR TFFF 050530Z AUTO 07012KT 030V090 9999 BKN026 BKN034 BKN041 27/22 Q1015

More Conditions Fewer Conditions

Pressure 29.98 in
Visibility 6.2 miles
Clouds Mostly Cloudy 2600 ft
Mostly Cloudy 3400 ft
Mostly Cloudy 4100 ft
Heat Index 87 °F
Dew Point 77 °F
Humidity 89%
Rainfall 0.00 in
Snow Depth Not available.
UV 0 out of 12
Pollen Not available.
Air Quality Not available.
Flu Activity Not available.
METAR TFFF 050530Z AUTO 07012KT 030V090 9999 BKN026 BKN034 BKN041 27/22 Q1015

More Conditions Fewer Conditions

10-Day Weather Forecast

×

Almanac

Astronomy

Jul. 05, 2015 Rise Set
Actual Time
Civil Twilight
Nautical Twilight
Astronomical Twilight
Moon
Length of Visible Light
Length of Day
Tomorrow will be .
, % of the Moon is Illuminated

Today's Extremes

Country Highs Country Lows

Community

WunderPhotos

Upload Photos

1,835,203 photos uploaded!

WunderBlogs® & News

Nearby

Air Quality

  Air Quality AQ Index Pollutant
Not available.

Snow Depth

Station Depth Elevation

Earthquake Activity

City Distance Mag. Time & Date
Minimum magnitude displayed is 2.5.

Coastal Water Temperatures

Place Temperature

Stations

Nearby Weather Stations

Station Location Temp. Windchill Dew Point Humidity Wind Precip. Elev Updated Type